createdAt,value
2018-06-16T00:00:42.227Z,17.6
2018-06-16T00:10:56.600Z,17.5
2018-06-16T00:21:10.489Z,17.4
2018-06-16T00:31:24.978Z,17.3
2018-06-16T00:41:38.859Z,17.2
2018-06-16T01:02:21.409Z,17.0
2018-06-16T01:12:33.753Z,16.8
2018-06-16T01:22:47.980Z,16.7
2018-06-16T01:33:02.235Z,16.6
2018-06-16T01:43:16.141Z,16.4
2018-06-16T01:55:23.696Z,16.2
2018-06-16T02:05:37.371Z,16.2
2018-06-16T02:15:51.417Z,16.1
2018-06-16T02:26:05.880Z,16.0
2018-06-16T02:36:50.397Z,15.8
2018-06-16T02:47:35.211Z,15.7
2018-06-16T02:58:21.103Z,15.6
2018-06-16T03:08:35.365Z,15.6
2018-06-16T03:18:49.995Z,15.5
2018-06-16T03:29:34.089Z,15.3
2018-06-16T03:39:45.727Z,15.3
2018-06-16T03:50:00.016Z,15.2
2018-06-16T04:02:09.690Z,15.1
2018-06-16T04:12:21.214Z,15.1
2018-06-16T04:22:35.301Z,15.1
2018-06-16T04:33:20.053Z,15.1
2018-06-16T04:43:34.148Z,15.1
2018-06-16T04:55:52.607Z,15.3
2018-06-16T05:06:06.869Z,15.3
2018-06-16T05:17:55.586Z,15.5
2018-06-16T05:28:09.110Z,15.7
2018-06-16T05:38:23.320Z,16.0
2018-06-16T05:48:37.563Z,16.4
2018-06-16T05:58:51.775Z,16.7
2018-06-16T06:09:05.965Z,17.0
2018-06-16T06:19:56.101Z,17.8
2018-06-16T06:31:48.105Z,17.8
2018-06-16T06:42:00.204Z,18.3
2018-06-16T06:52:14.686Z,18.8
2018-06-16T07:02:59.179Z,19.7
2018-06-16T07:14:30.068Z,19.7
2018-06-16T07:41:00.887Z,21.7
2018-06-16T07:51:15.584Z,21.7
2018-06-16T08:02:00.901Z,23.5
2018-06-16T08:13:00.863Z,24.4
2018-06-16T08:23:21.191Z,24.4
2018-06-16T08:33:35.483Z,25.1
2018-06-16T08:43:48.884Z,25.5
2018-06-16T08:55:13.878Z,25.8
2018-06-16T09:15:47.894Z,26.7
2018-06-16T09:26:01.513Z,27.1
2018-06-16T09:36:18.865Z,27.5
2018-06-16T09:46:35.522Z,28.0
2018-06-16T09:57:19.660Z,28.9
2018-06-16T10:07:33.682Z,29.8
2018-06-16T10:18:18.556Z,30.9
2018-06-16T10:29:03.630Z,31.1
2018-06-16T10:39:18.329Z,31.1
2018-06-16T10:59:54.441Z,31.6
2018-06-16T11:10:08.954Z,31.6
2018-06-16T11:20:35.823Z,31.7
2018-06-16T11:31:01.227Z,31.6
2018-06-16T11:41:17.192Z,31.2
2018-06-16T12:02:24.444Z,30.5
2018-06-16T12:12:39.505Z,30.0
2018-06-16T12:23:10.809Z,29.4
2018-06-16T12:33:25.713Z,29.0
2018-06-16T12:43:40.952Z,28.7
2018-06-16T12:53:56.051Z,28.6
2018-06-16T13:06:33.060Z,28.7
2018-06-16T13:17:19.073Z,29.0
2018-06-16T13:27:33.493Z,29.0
2018-06-16T14:01:29.666Z,30.0
2018-06-16T14:12:24.702Z,30.4
2018-06-16T14:37:18.085Z,30.8
2018-06-16T14:47:32.042Z,31.4
2018-06-16T14:57:56.484Z,31.4
2018-06-16T15:08:11.677Z,31.3
2018-06-16T15:18:25.966Z,31.1
2018-06-16T15:28:40.145Z,31.0
2018-06-16T15:40:35.019Z,30.8
2018-06-16T15:51:12.135Z,30.5
2018-06-16T16:03:38.013Z,30.1
2018-06-16T16:14:23.225Z,29.4
2018-06-16T16:25:08.803Z,29.3
2018-06-16T16:35:24.903Z,29.3
2018-06-16T16:45:39.287Z,29.1
2018-06-16T16:55:53.926Z,28.8
2018-06-16T17:06:08.193Z,28.5
2018-06-16T17:16:21.862Z,28.1
2018-06-16T17:26:37.993Z,27.8
2018-06-16T17:36:52.710Z,27.4
2018-06-16T17:47:38.187Z,26.5
2018-06-16T17:57:52.672Z,26.5
2018-06-16T18:08:04.478Z,26.1
2018-06-16T18:18:19.691Z,25.6
2018-06-16T18:28:31.519Z,25.2
2018-06-16T18:38:45.413Z,24.7
2018-06-16T18:50:15.295Z,23.7
2018-06-16T19:04:23.727Z,23.2
2018-06-16T19:31:09.119Z,22.2
